createdAt,value
2016-11-28T07:26:51.347Z,15
2016-11-28T07:28:04.767Z,45
2016-11-28T07:29:19.940Z,50
2016-11-28T07:30:36.935Z,50
2016-11-28T07:31:50.963Z,55
2016-11-28T07:33:05.912Z,55
2016-11-28T07:34:18.975Z,55
2016-11-28T07:35:34.915Z,60
2016-11-28T07:36:51.620Z,60
2016-11-28T07:38:04.412Z,65
2016-11-28T07:39:21.178Z,70
2016-11-28T07:40:36.411Z,75
2016-11-28T07:41:52.484Z,80
2016-11-28T07:43:08.133Z,85
2016-11-28T07:44:24.426Z,95
2016-11-28T07:45:37.922Z,110
2016-11-28T07:46:49.793Z,135
2016-11-28T07:48:00.624Z,155
2016-11-28T07:49:17.383Z,160
2016-11-28T07:50:33.992Z,170
2016-11-28T07:51:48.463Z,175
2016-11-28T07:53:00.296Z,180
2016-11-28T07:54:13.948Z,185
2016-11-28T07:55:30.704Z,190
2016-11-28T07:56:45.893Z,195
2016-11-28T07:58:00.712Z,200
2016-11-28T07:59:15.690Z,210
2016-11-28T08:00:31.017Z,215
2016-11-28T08:01:46.141Z,225
2016-11-28T08:03:01.115Z,230
2016-11-28T08:04:16.769Z,235
2016-11-28T08:05:31.862Z,245
2016-11-28T08:06:46.795Z,255
2016-11-28T08:08:00.264Z,260
2016-11-28T08:09:15.094Z,265
2016-11-28T08:10:28.935Z,275
2016-11-28T08:11:46.121Z,285
2016-11-28T08:13:02.760Z,290
2016-11-28T08:14:17.609Z,300
2016-11-28T08:15:34.352Z,315
2016-11-28T08:16:50.907Z,325
2016-11-28T08:18:07.208Z,330
2016-11-28T08:19:20.619Z,345
2016-11-28T08:20:35.386Z,355
2016-11-28T08:21:51.707Z,370
2016-11-28T08:23:07.435Z,390
2016-11-28T08:24:23.479Z,410
2016-11-28T08:25:39.263Z,430
2016-11-28T08:26:54.492Z,440
2016-11-28T08:28:10.641Z,455
2016-11-28T08:29:23.870Z,460
2016-11-28T08:30:38.498Z,470
2016-11-28T08:31:53.640Z,475
2016-11-28T08:33:06.406Z,485
2016-11-28T08:34:22.049Z,490
2016-11-28T08:35:37.532Z,495
2016-11-28T08:36:52.871Z,495
2016-11-28T08:38:09.011Z,495
2016-11-28T08:39:23.691Z,505
2016-11-28T08:40:39.849Z,520
2016-11-28T08:41:56.711Z,535
2016-11-28T08:43:11.071Z,545
2016-11-28T08:44:26.332Z,560
2016-11-28T08:45:40.944Z,580
2016-11-28T08:46:55.455Z,615
2016-11-28T08:48:11.957Z,640
2016-11-28T08:49:24.842Z,670
2016-11-28T08:50:39.922Z,705
2016-11-28T08:51:56.877Z,755
2016-11-28T08:53:10.508Z,835
2016-11-28T08:54:26.227Z,870
2016-11-28T08:55:41.440Z,905
2016-11-28T08:56:58.315Z,885
2016-11-28T08:58:15.108Z,935
2016-11-28T08:59:31.992Z,1035
2016-11-28T09:00:47.074Z,1130
2016-11-28T09:02:03.484Z,1250
2016-11-28T09:03:17.804Z,1310
2016-11-28T09:04:33.544Z,1365
2016-11-28T09:05:49.445Z,1375
2016-11-28T09:07:05.833Z,1385
2016-11-28T09:08:21.885Z,1370
2016-11-28T09:09:36.274Z,1365
2016-11-28T09:10:49.250Z,1365
2016-11-28T09:12:04.197Z,1365
2016-11-28T09:13:19.456Z,1360
2016-11-28T09:14:31.313Z,1355
2016-11-28T09:15:46.739Z,1365
2016-11-28T09:17:01.430Z,1385
2016-11-28T09:18:18.051Z,1390
2016-11-28T09:19:33.654Z,1405
2016-11-28T09:20:48.608Z,1410
2016-11-28T09:22:05.060Z,1400
2016-11-28T09:23:20.547Z,1415
2016-11-28T09:24:37.047Z,1455
2016-11-28T09:25:53.191Z,1455
2016-11-28T09:27:09.936Z,1465
2016-11-28T09:28:24.957Z,1490
2016-11-28T09:29:41.701Z,1520
2016-11-28T09:30:58.102Z,1510
2016-11-28T09:32:12.797Z,1515
2016-11-28T09:33:26.305Z,1545
2016-11-28T09:34:42.603Z,1565
2016-11-28T09:35:58.632Z,1590
2016-11-28T09:37:15.353Z,1640
2016-11-28T09:38:29.126Z,1635
2016-11-28T09:39:44.111Z,1635
2016-11-28T09:40:58.746Z,1645
2016-11-28T09:42:11.519Z,1645
2016-11-28T09:43:27.455Z,1695
2016-11-28T09:44:43.522Z,1670
2016-11-28T09:46:00.246Z,1670
2016-11-28T09:47:15.415Z,1680
2016-11-28T09:48:30.946Z,1710
2016-11-28T09:49:48.091Z,1725
2016-11-28T09:51:04.118Z,1770
2016-11-28T09:52:20.357Z,1775
2016-11-28T09:53:36.449Z,1785
2016-11-28T09:54:49.887Z,1780
2016-11-28T09:56:05.018Z,1755
2016-11-28T09:57:20.040Z,1765
2016-11-28T09:58:35.890Z,1775
2016-11-28T09:59:49.593Z,1810
2016-11-28T10:01:05.764Z,1790
2016-11-28T10:02:20.223Z,1545
2016-11-28T10:03:35.029Z,1450
2016-11-28T10:04:49.991Z,1480
2016-11-28T10:06:04.840Z,1490
2016-11-28T10:07:19.666Z,1475
2016-11-28T10:08:34.486Z,1475
2016-11-28T10:09:51.227Z,1500
2016-11-28T10:11:06.248Z,1490
2016-11-28T10:12:22.836Z,1435
2016-11-28T10:13:38.736Z,1450
2016-11-28T10:14:54.652Z,1425
2016-11-28T10:16:09.757Z,1430
2016-11-28T10:17:25.836Z,1440
2016-11-28T10:18:41.395Z,1420
2016-11-28T10:19:57.494Z,1415
2016-11-28T10:21:11.780Z,1405
2016-11-28T10:22:26.932Z,1360
2016-11-28T10:23:43.141Z,1335
2016-11-28T10:24:57.772Z,1345
2016-11-28T10:26:13.265Z,1375
2016-11-28T10:27:27.721Z,1600
2016-11-28T10:28:44.071Z,1390
2016-11-28T10:30:00.408Z,1330
2016-11-28T10:31:16.308Z,1280
2016-11-28T10:32:32.014Z,1240
2016-11-28T10:33:47.054Z,1190
2016-11-28T10:35:01.968Z,1000
2016-11-28T10:36:17.055Z,365
2016-11-28T10:37:32.703Z,240
2016-11-28T10:38:48.009Z,220
2016-11-28T10:40:04.778Z,205
2016-11-28T10:41:20.331Z,195
2016-11-28T10:42:35.107Z,240
2016-11-28T10:43:47.788Z,255
2016-11-28T10:45:07.318Z,430
2016-11-28T10:46:21.684Z,930
2016-11-28T10:47:36.557Z,370
2016-11-28T10:48:53.268Z,220
2016-11-28T10:50:08.909Z,190
2016-11-28T10:51:23.595Z,180
2016-11-28T10:52:39.647Z,175
2016-11-28T10:54:08.876Z,175
2016-11-28T10:55:23.970Z,175
2016-11-28T10:56:39.231Z,175
2016-11-28T10:57:56.045Z,175
2016-11-28T10:59:09.614Z,175
2016-11-28T11:00:25.620Z,175
2016-11-28T11:01:41.174Z,175
2016-11-28T11:03:12.273Z,175
2016-11-28T11:04:25.268Z,175
2016-11-28T11:05:41.328Z,175
2016-11-28T11:06:56.008Z,175
2016-11-28T11:08:12.805Z,175
2016-11-28T11:09:29.488Z,175
2016-11-28T11:10:44.824Z,175
2016-11-28T11:11:59.959Z,180
2016-11-28T11:13:13.194Z,175
2016-11-28T11:14:29.655Z,175
2016-11-28T11:15:43.052Z,175
2016-11-28T11:16:59.223Z,175
2016-11-28T11:18:15.270Z,175
2016-11-28T11:19:29.731Z,170
2016-11-28T11:20:46.278Z,170
2016-11-28T11:22:00.373Z,170
2016-11-28T11:23:16.931Z,170
2016-11-28T11:24:32.238Z,170
2016-11-28T11:25:45.367Z,170
2016-11-28T11:26:58.062Z,170
2016-11-28T11:28:12.929Z,170
2016-11-28T11:29:27.777Z,170
2016-11-28T11:30:42.868Z,175
2016-11-28T11:31:57.810Z,170
2016-11-28T11:33:10.871Z,170
2016-11-28T11:34:27.546Z,170
2016-11-28T11:35:44.125Z,165
2016-11-28T11:36:58.562Z,165
2016-11-28T11:38:13.601Z,165
2016-11-28T11:39:30.944Z,165
2016-11-28T11:40:46.284Z,165
2016-11-28T11:42:02.054Z,165
2016-11-28T11:43:16.253Z,165
2016-11-28T11:44:32.963Z,165
2016-11-28T11:45:49.243Z,165
2016-11-28T11:47:04.327Z,160
2016-11-28T11:48:19.020Z,160
2016-11-28T11:49:35.489Z,160
2016-11-28T11:50:50.019Z,160
2016-11-28T11:52:03.005Z,160
2016-11-28T11:53:18.639Z,160
2016-11-28T11:54:34.029Z,160
2016-11-28T11:55:48.748Z,160
2016-11-28T11:57:05.061Z,160
2016-11-28T11:58:20.972Z,160
2016-11-28T11:59:32.781Z,160
2016-11-28T12:00:48.860Z,165
2016-11-28T12:02:03.297Z,160
2016-11-28T12:03:18.038Z,155
2016-11-28T12:04:32.890Z,155
2016-11-28T12:05:47.712Z,155
2016-11-28T12:07:02.793Z,155
2016-11-28T12:08:17.900Z,155
2016-11-28T12:09:32.329Z,155
2016-11-28T12:10:48.285Z,155
2016-11-28T12:12:04.449Z,155
2016-11-28T12:13:19.141Z,155
2016-11-28T12:14:33.977Z,155
2016-11-28T12:15:48.694Z,155
2016-11-28T12:17:03.301Z,155
2016-11-28T12:18:17.834Z,155
2016-11-28T12:19:33.872Z,155
2016-11-28T12:20:47.190Z,155
2016-11-28T12:22:01.805Z,150
2016-11-28T12:23:17.578Z,150
2016-11-28T12:24:34.447Z,150
2016-11-28T12:25:48.819Z,150
2016-11-28T12:27:03.255Z,150
2016-11-28T12:28:17.966Z,150
2016-11-28T12:29:32.479Z,150
2016-11-28T12:30:46.123Z,150
2016-11-28T12:32:02.432Z,150
2016-11-28T12:33:17.090Z,150
2016-11-28T12:34:33.327Z,150
2016-11-28T12:35:46.979Z,150
2016-11-28T12:37:01.624Z,150
2016-11-28T12:38:17.532Z,145
2016-11-28T12:39:31.561Z,145
2016-11-28T12:40:46.234Z,145
2016-11-28T12:42:02.019Z,145
2016-11-28T12:43:16.706Z,145
2016-11-28T12:44:31.815Z,145
2016-11-28T12:45:46.903Z,145
2016-11-28T12:47:03.724Z,145
2016-11-28T12:48:20.033Z,145
2016-11-28T12:49:36.338Z,145
2016-11-28T12:50:51.067Z,145
2016-11-28T12:52:02.941Z,145
2016-11-28T12:53:19.783Z,145
2016-11-28T12:54:34.631Z,140
2016-11-28T12:55:48.928Z,140
2016-11-28T12:57:05.787Z,140
2016-11-28T12:58:20.551Z,140
2016-11-28T12:59:37.240Z,140
2016-11-28T13:00:52.479Z,140
2016-11-28T13:02:04.694Z,140
2016-11-28T13:03:16.462Z,140
2016-11-28T13:04:33.024Z,140
2016-11-28T13:05:46.710Z,140
2016-11-28T13:06:59.945Z,140
2016-11-28T13:08:15.428Z,135
2016-11-28T13:09:28.845Z,135
2016-11-28T13:10:44.146Z,135
2016-11-28T13:11:58.741Z,135
2016-11-28T13:13:13.630Z,135
2016-11-28T13:14:28.406Z,135
2016-11-28T13:15:40.754Z,135
2016-11-28T13:16:55.347Z,135
2016-11-28T13:18:11.715Z,135
2016-11-28T13:19:28.547Z,135
2016-11-28T13:20:43.695Z,135
2016-11-28T13:21:58.063Z,135
2016-11-28T13:23:14.251Z,135
2016-11-28T13:24:29.106Z,135
2016-11-28T13:25:44.162Z,135
2016-11-28T13:26:57.320Z,135
2016-11-28T13:28:13.249Z,135
2016-11-28T13:29:26.372Z,130
2016-11-28T13:30:41.444Z,130
2016-11-28T13:31:58.270Z,130
2016-11-28T13:33:13.242Z,130
2016-11-28T13:34:29.214Z,130
2016-11-28T13:35:45.512Z,130
2016-11-28T13:37:00.106Z,130
2016-11-28T13:38:16.664Z,130
2016-11-28T13:39:31.934Z,125
2016-11-28T13:40:48.080Z,125
2016-11-28T13:42:04.121Z,125
2016-11-28T13:43:19.329Z,125
2016-11-28T13:44:35.320Z,125
2016-11-28T13:45:51.636Z,125
2016-11-28T13:47:08.178Z,120
2016-11-28T13:48:22.894Z,120
2016-11-28T13:49:39.744Z,120
2016-11-28T13:50:54.946Z,120
2016-11-28T13:52:09.936Z,120
2016-11-28T13:53:24.632Z,120
2016-11-28T13:54:39.305Z,115
2016-11-28T13:55:56.049Z,115
2016-11-28T13:57:11.954Z,115
2016-11-28T13:58:28.175Z,115
2016-11-28T13:59:43.310Z,115
2016-11-28T14:00:56.809Z,115
2016-11-28T14:02:09.903Z,110
2016-11-28T14:03:25.398Z,110
2016-11-28T14:04:42.162Z,110
2016-11-28T14:05:56.884Z,110
2016-11-28T14:07:10.391Z,110
2016-11-28T14:08:23.149Z,105
2016-11-28T14:09:39.469Z,105
2016-11-28T14:10:55.048Z,105
2016-11-28T14:12:10.950Z,105
2016-11-28T14:13:25.386Z,100
2016-11-28T14:14:41.725Z,100
2016-11-28T14:15:55.196Z,100
2016-11-28T14:17:11.733Z,100
2016-11-28T14:18:25.475Z,100
2016-11-28T14:19:41.095Z,95
2016-11-28T14:20:55.371Z,95
2016-11-28T14:22:11.936Z,95
2016-11-28T14:23:26.815Z,95
2016-11-28T14:24:38.808Z,90
2016-11-28T14:25:53.824Z,90
2016-11-28T14:27:08.561Z,90
2016-11-28T14:28:25.785Z,85
2016-11-28T14:29:42.025Z,85
2016-11-28T14:30:57.194Z,85
2016-11-28T14:32:13.330Z,85
2016-11-28T14:33:29.963Z,80
2016-11-28T14:34:42.253Z,80
2016-11-28T14:35:58.813Z,80
2016-11-28T14:37:15.869Z,75
2016-11-28T14:38:32.227Z,75
2016-11-28T14:39:46.177Z,75
2016-11-28T14:41:02.357Z,70
2016-11-28T14:42:17.475Z,70
2016-11-28T14:43:34.035Z,70
2016-11-28T14:44:50.314Z,65
2016-11-28T14:46:06.787Z,65
2016-11-28T14:47:23.069Z,65
2016-11-28T14:48:37.790Z,60
2016-11-28T14:49:52.413Z,60
2016-11-28T14:51:09.428Z,60
2016-11-28T14:52:23.721Z,55
2016-11-28T14:53:38.876Z,55
2016-11-28T14:54:52.104Z,50
2016-11-28T14:56:07.492Z,50
2016-11-28T14:57:22.324Z,50
2016-11-28T14:58:39.020Z,45
2016-11-28T14:59:54.927Z,45
2016-11-28T15:01:11.692Z,45
2016-11-28T15:02:25.576Z,40
2016-11-28T15:03:42.294Z,40
2016-11-28T15:04:57.275Z,35
2016-11-28T15:06:11.684Z,35
2016-11-28T15:07:24.663Z,35
2016-11-28T15:08:39.767Z,30
2016-11-28T15:09:55.089Z,30
2016-11-28T15:11:10.214Z,30
2016-11-28T15:12:24.414Z,25
2016-11-28T15:13:40.581Z,25
2016-11-28T15:14:57.788Z,25
2016-11-28T15:16:12.538Z,20
2016-11-28T15:17:29.025Z,20
2016-11-28T15:18:45.202Z,20
2016-11-28T15:20:00.415Z,15
2016-11-28T15:21:11.984Z,15
2016-11-28T15:22:28.579Z,15
2016-11-28T15:23:43.821Z,10
2016-11-28T15:24:59.987Z,10
2016-11-28T15:26:16.400Z,10
2016-11-28T15:27:33.147Z,10
2016-11-28T15:28:49.758Z,5
2016-11-28T15:30:05.641Z,5
2016-11-28T15:31:21.287Z,5
2016-11-28T15:32:34.906Z,5
2016-11-28T15:33:49.774Z,5
2016-11-28T15:35:05.301Z,5
2016-11-28T15:36:19.928Z,0
2016-11-28T15:37:36.630Z,0
2016-11-28T15:38:51.812Z,0
2016-11-28T15:40:07.004Z,0
2016-11-28T15:41:23.270Z,0
2016-11-28T15:42:38.358Z,0
2016-11-28T15:43:53.441Z,0
2016-11-28T15:45:05.556Z,0
2016-11-28T15:46:18.770Z,0
2016-11-28T15:47:35.479Z,0
2016-11-28T15:48:49.770Z,0
2016-11-28T15:50:06.640Z,0
2016-11-28T15:51:23.080Z,0
2016-11-28T15:52:39.278Z,0
2016-11-28T15:53:56.356Z,0
2016-11-28T15:55:12.756Z,0
2016-11-28T15:56:28.247Z,0
2016-11-28T15:57:41.380Z,0
2016-11-28T15:58:54.446Z,0
2016-11-28T16:00:11.022Z,0
2016-11-28T16:01:24.311Z,0
2016-11-28T16:02:40.475Z,0
2016-11-28T16:03:54.228Z,0
2016-11-28T16:05:08.648Z,0
2016-11-28T16:06:23.374Z,0
2016-11-28T16:07:39.506Z,0
2016-11-28T16:08:56.485Z,0
2016-11-28T16:10:10.681Z,0
2016-11-28T16:11:23.668Z,0
2016-11-28T16:12:36.012Z,0
2016-11-28T16:13:52.091Z,0
2016-11-28T16:15:06.900Z,0
2016-11-28T16:16:21.607Z,0
2016-11-28T16:17:38.144Z,0
2016-11-28T16:18:51.835Z,0
2016-11-28T16:20:07.966Z,0
2016-11-28T16:21:21.434Z,0
2016-11-28T16:22:35.853Z,0
2016-11-28T16:23:51.795Z,0
2016-11-28T16:25:06.120Z,0
2016-11-28T16:26:21.131Z,0
2016-11-28T16:27:36.129Z,0
2016-11-28T16:28:50.629Z,0
2016-11-28T16:30:07.284Z,0
2016-11-28T16:31:18.854Z,0
2016-11-28T16:32:33.381Z,0
2016-11-28T16:33:49.815Z,0
2016-11-28T16:35:01.821Z,0
2016-11-28T16:36:17.028Z,0
2016-11-28T16:37:34.081Z,0
2016-11-28T16:38:49.347Z,0
2016-11-28T16:40:04.955Z,0
2016-11-28T16:41:20.839Z,0
2016-11-28T16:42:37.365Z,0
2016-11-28T16:43:50.692Z,0
2016-11-28T16:45:06.947Z,0
2016-11-28T16:46:21.414Z,0
2016-11-28T16:47:36.131Z,0
2016-11-28T16:48:50.592Z,0
2016-11-28T16:50:07.308Z,0
2016-11-28T16:51:24.241Z,0
2016-11-28T16:52:38.571Z,0
2016-11-28T16:53:55.258Z,0
2016-11-28T16:55:10.432Z,0
2016-11-28T16:56:24.806Z,0
2016-11-28T16:57:39.858Z,0
2016-11-28T16:58:54.213Z,0
2016-11-28T17:00:09.683Z,0
2016-11-28T17:01:24.771Z,0
2016-11-28T17:02:40.393Z,0
2016-11-28T17:03:53.376Z,0
2016-11-28T17:05:05.305Z,0
2016-11-28T17:06:22.214Z,0
2016-11-28T17:07:38.305Z,0
2016-11-28T17:08:54.623Z,0
2016-11-28T17:10:11.706Z,0
2016-11-28T17:11:25.325Z,0
2016-11-28T17:12:40.467Z,0
2016-11-28T17:13:55.598Z,0
2016-11-28T17:15:09.179Z,0
2016-11-28T17:16:24.552Z,0
2016-11-28T17:17:40.907Z,0
2016-11-28T17:18:56.659Z,0
2016-11-28T17:20:11.715Z,0
2016-11-28T17:21:28.262Z,0
2016-11-28T17:22:43.223Z,0
2016-11-28T17:23:57.998Z,0
2016-11-28T17:25:14.208Z,0
2016-11-28T17:26:28.829Z,0
2016-11-28T17:27:45.538Z,0
2016-11-28T17:28:58.704Z,0
2016-11-28T17:30:11.831Z,0
2016-11-28T17:31:26.978Z,0
2016-11-28T17:32:43.541Z,0
2016-11-28T17:33:59.893Z,0
2016-11-28T17:35:13.323Z,0
2016-11-28T17:36:27.998Z,0
2016-11-28T17:37:43.927Z,0
2016-11-28T17:39:00.878Z,0
2016-11-28T17:40:14.949Z,0
2016-11-28T17:41:29.839Z,0
2016-11-28T17:42:46.804Z,0
2016-11-28T17:44:02.959Z,0
2016-11-28T17:45:18.214Z,0
2016-11-28T17:46:33.295Z,0
2016-11-28T17:47:46.874Z,0
2016-11-28T17:49:00.392Z,0
2016-11-28T17:50:15.199Z,0
2016-11-28T17:51:28.766Z,0
2016-11-28T17:52:42.736Z,0
2016-11-28T17:53:59.293Z,0
2016-11-28T17:55:14.479Z,0
2016-11-28T17:56:31.297Z,0
2016-11-28T17:57:44.885Z,0
2016-11-28T17:58:59.182Z,0
2016-11-28T18:00:12.439Z,0
2016-11-28T18:01:29.022Z,0
2016-11-28T18:02:45.699Z,0
2016-11-28T18:03:59.174Z,0
2016-11-28T18:05:15.942Z,0
2016-11-28T18:06:31.984Z,0
2016-11-28T18:07:47.347Z,0
2016-11-28T18:09:03.806Z,0
2016-11-28T18:10:20.090Z,0
2016-11-28T18:11:36.223Z,0
2016-11-28T18:12:49.316Z,0
2016-11-28T18:14:05.717Z,0
2016-11-28T18:15:21.860Z,0
2016-11-28T18:16:36.331Z,0
2016-11-28T18:17:49.717Z,0
2016-11-28T18:19:05.713Z,0
2016-11-28T18:20:22.436Z,0
2016-11-28T18:21:36.631Z,0
2016-11-28T18:22:51.626Z,0
2016-11-28T18:24:06.091Z,0
2016-11-28T18:25:20.944Z,0
2016-11-28T18:26:35.805Z,0
2016-11-28T18:27:51.197Z,0
2016-11-28T18:29:06.215Z,0
2016-11-28T18:30:19.210Z,0
2016-11-28T18:31:34.699Z,0
2016-11-28T18:32:49.999Z,0
2016-11-28T18:34:03.574Z,0
2016-11-28T18:35:20.036Z,0
2016-11-28T18:36:35.525Z,0
2016-11-28T18:37:50.231Z,0
2016-11-28T18:39:05.489Z,0
2016-11-28T18:40:22.231Z,0
2016-11-28T18:41:37.022Z,0
2016-11-28T18:42:53.030Z,0
2016-11-28T18:44:10.149Z,0
2016-11-28T18:45:24.554Z,0
2016-11-28T18:46:39.591Z,0
2016-11-28T18:47:53.444Z,0
2016-11-28T18:49:10.747Z,0
2016-11-28T18:50:26.949Z,0
2016-11-28T18:51:41.042Z,0
2016-11-28T18:52:55.651Z,0
2016-11-28T18:54:10.361Z,0
2016-11-28T18:55:26.419Z,0
2016-11-28T18:56:38.369Z,0
2016-11-28T18:57:51.222Z,0
2016-11-28T18:59:07.713Z,0
2016-11-28T19:00:20.854Z,0
2016-11-28T19:01:34.423Z,0
2016-11-28T19:02:47.169Z,0
2016-11-28T19:04:02.541Z,0
2016-11-28T19:05:16.985Z,0
2016-11-28T19:06:31.806Z,0
2016-11-28T19:07:47.967Z,0
2016-11-28T19:09:02.772Z,0
2016-11-28T19:10:16.313Z,0
2016-11-28T19:11:28.363Z,0
2016-11-28T19:12:42.508Z,0
2016-11-28T19:13:55.731Z,0
2016-11-28T19:15:11.271Z,0
2016-11-28T19:16:27.263Z,0
2016-11-28T19:17:41.026Z,0
2016-11-28T19:18:57.699Z,0
2016-11-28T19:20:13.872Z,0
2016-11-28T19:21:28.980Z,0
2016-11-28T19:22:44.467Z,0
2016-11-28T19:23:58.299Z,0
2016-11-28T19:25:11.772Z,0
2016-11-28T19:26:26.905Z,0
2016-11-28T19:27:39.632Z,0
2016-11-28T19:28:53.551Z,0
2016-11-28T19:30:09.779Z,0
2016-11-28T19:31:24.237Z,0
2016-11-28T19:32:40.814Z,0
2016-11-28T19:33:56.707Z,0
2016-11-28T19:35:11.073Z,0
2016-11-28T19:36:27.201Z,0
2016-11-28T19:37:41.741Z,0
2016-11-28T19:38:57.661Z,0
2016-11-28T19:40:12.372Z,0
2016-11-28T19:41:27.449Z,0
2016-11-28T19:42:39.643Z,0
2016-11-28T19:43:54.345Z,0
2016-11-28T19:45:07.693Z,0
2016-11-28T19:46:23.758Z,0
2016-11-28T19:47:38.644Z,0
2016-11-28T19:48:54.819Z,0
2016-11-28T19:50:07.850Z,0
2016-11-28T19:51:23.976Z,0
2016-11-28T19:52:39.140Z,0
2016-11-28T19:53:52.925Z,0
2016-11-28T19:55:08.023Z,0
2016-11-28T19:56:22.714Z,0
2016-11-28T19:57:39.192Z,0
2016-11-28T19:58:55.982Z,0
2016-11-28T20:00:11.551Z,0
2016-11-28T20:01:23.440Z,0
2016-11-28T20:02:39.550Z,0
2016-11-28T20:03:54.338Z,0
2016-11-28T20:05:10.520Z,0
2016-11-28T20:06:23.319Z,0
2016-11-28T20:07:37.763Z,0
2016-11-28T20:08:52.318Z,0
2016-11-28T20:10:06.916Z,0
2016-11-28T20:11:20.076Z,0
2016-11-28T20:12:33.701Z,0
2016-11-28T20:13:48.912Z,0
2016-11-28T20:15:03.945Z,0
2016-11-28T20:16:18.628Z,0
2016-11-28T20:17:33.261Z,0
2016-11-28T20:18:48.370Z,0
2016-11-28T20:20:03.806Z,0
2016-11-28T20:21:18.245Z,0
2016-11-28T20:22:34.136Z,0
2016-11-28T20:23:49.293Z,0
2016-11-28T20:25:04.581Z,0
2016-11-28T20:26:19.963Z,0
2016-11-28T20:27:34.666Z,0
2016-11-28T20:28:51.759Z,0
2016-11-28T20:30:07.420Z,0
2016-11-28T20:31:23.621Z,0
2016-11-28T20:32:38.272Z,0
2016-11-28T20:33:51.411Z,0
2016-11-28T20:35:06.581Z,0
2016-11-28T20:36:21.217Z,0
2016-11-28T20:37:37.421Z,0
2016-11-28T20:38:53.357Z,0
2016-11-28T20:40:10.080Z,0
2016-11-28T20:41:24.297Z,0
2016-11-28T20:42:37.373Z,0
2016-11-28T20:43:50.549Z,0
2016-11-28T20:45:05.252Z,0
2016-11-28T20:46:20.119Z,0
2016-11-28T20:47:34.814Z,0
2016-11-28T20:48:47.844Z,0
2016-11-28T20:50:04.150Z,0
2016-11-28T20:51:17.235Z,0
2016-11-28T20:52:31.885Z,0
2016-11-28T20:53:47.154Z,0
2016-11-28T20:55:03.043Z,0
2016-11-28T20:56:18.962Z,0
2016-11-28T20:57:35.317Z,0
2016-11-28T20:58:49.780Z,0
2016-11-28T21:00:04.510Z,0
2016-11-28T21:01:20.376Z,0
2016-11-28T21:02:34.261Z,0
2016-11-28T21:03:50.624Z,0
2016-11-28T21:05:07.179Z,0
2016-11-28T21:06:22.519Z,0
2016-11-28T21:07:38.450Z,0
2016-11-28T21:08:53.132Z,0
2016-11-28T21:10:08.234Z,0
2016-11-28T21:11:22.509Z,0
2016-11-28T21:12:37.347Z,0
2016-11-28T21:13:53.005Z,0
2016-11-28T21:15:09.098Z,0
2016-11-28T21:16:25.619Z,0
2016-11-28T21:17:41.695Z,0
2016-11-28T21:18:57.731Z,0
2016-11-28T21:20:12.969Z,0
2016-11-28T21:21:27.403Z,0
2016-11-28T21:22:43.852Z,0
2016-11-28T21:23:58.962Z,0
2016-11-28T21:25:16.141Z,0
2016-11-28T21:26:31.377Z,0
2016-11-28T21:27:44.848Z,0
2016-11-28T21:28:56.981Z,0
2016-11-28T21:30:11.600Z,0
2016-11-28T21:31:25.112Z,0
2016-11-28T21:32:38.532Z,0
2016-11-28T21:33:53.349Z,0
2016-11-28T21:35:10.502Z,0
2016-11-28T21:36:26.415Z,0
2016-11-28T21:37:42.560Z,0
2016-11-28T21:38:58.041Z,0
2016-11-28T21:40:14.312Z,0
2016-11-28T21:41:31.079Z,0
2016-11-28T21:42:46.176Z,0
2016-11-28T21:43:58.419Z,0
2016-11-28T21:45:14.555Z,0
2016-11-28T21:46:29.157Z,0
2016-11-28T21:47:43.441Z,0
2016-11-28T21:48:58.040Z,0
2016-11-28T21:50:13.977Z,0
2016-11-28T21:51:28.486Z,0
2016-11-28T21:52:41.829Z,0
2016-11-28T21:53:56.998Z,0
2016-11-28T21:55:11.706Z,0
2016-11-28T21:56:28.398Z,0
2016-11-28T21:57:43.245Z,0
2016-11-28T21:58:58.289Z,0
2016-11-28T22:00:14.430Z,0
2016-11-28T22:01:26.376Z,0
2016-11-28T22:02:41.500Z,0
2016-11-28T22:03:56.972Z,0
2016-11-28T22:05:11.162Z,0
2016-11-28T22:06:27.195Z,0
2016-11-28T22:07:44.176Z,0
2016-11-28T22:09:00.076Z,0
2016-11-28T22:10:14.916Z,0
2016-11-28T22:11:29.240Z,0
2016-11-28T22:12:44.147Z,0
2016-11-28T22:13:58.060Z,0
2016-11-28T22:15:12.776Z,0
2016-11-28T22:16:29.346Z,0
2016-11-28T22:17:42.853Z,0
2016-11-28T22:18:55.149Z,0
2016-11-28T22:20:09.069Z,0
2016-11-28T22:21:25.021Z,0
2016-11-28T22:22:39.932Z,0
2016-11-28T22:23:55.073Z,0
2016-11-28T22:25:11.149Z,0
2016-11-28T22:26:26.860Z,0
2016-11-28T22:27:42.834Z,0
2016-11-28T22:28:58.405Z,0
2016-11-28T22:30:13.317Z,0
2016-11-28T22:31:28.585Z,0
2016-11-28T22:32:42.092Z,0
2016-11-28T22:33:58.542Z,0
2016-11-28T22:35:13.780Z,0
2016-11-28T22:36:28.749Z,0
2016-11-28T22:37:42.409Z,0
2016-11-28T22:38:57.119Z,0
2016-11-28T22:40:12.181Z,0
2016-11-28T22:41:26.678Z,0
2016-11-28T22:42:38.896Z,0
2016-11-28T22:43:53.964Z,0
2016-11-28T22:45:07.685Z,0
2016-11-28T22:46:22.912Z,0
2016-11-28T22:47:36.363Z,0
2016-11-28T22:48:51.309Z,0
2016-11-28T22:50:03.357Z,0
2016-11-28T22:51:16.866Z,0
2016-11-28T22:52:32.965Z,0
2016-11-28T22:53:47.492Z,0
2016-11-28T22:55:03.774Z,0
2016-11-28T22:56:18.369Z,0
2016-11-28T22:57:33.466Z,0
2016-11-28T22:58:49.435Z,0
2016-11-28T23:00:01.350Z,0
2016-11-28T23:01:16.975Z,0
2016-11-28T23:02:31.895Z,0
2016-11-28T23:03:48.283Z,0
2016-11-28T23:05:03.114Z,0
2016-11-28T23:06:16.552Z,0
2016-11-28T23:07:31.265Z,0
2016-11-28T23:08:46.454Z,0
2016-11-28T23:09:59.995Z,0
2016-11-28T23:11:16.893Z,0
2016-11-28T23:12:32.398Z,0
2016-11-28T23:13:45.698Z,0
2016-11-28T23:15:02.490Z,0
2016-11-28T23:16:17.423Z,0
2016-11-28T23:17:33.590Z,0
2016-11-28T23:18:50.428Z,0
2016-11-28T23:20:03.560Z,0
2016-11-28T23:21:18.935Z,0
2016-11-28T23:22:35.946Z,0
2016-11-28T23:23:52.167Z,0
2016-11-28T23:25:07.256Z,0
2016-11-28T23:26:21.442Z,0
2016-11-28T23:27:37.642Z,0
2016-11-28T23:28:53.649Z,0
2016-11-28T23:30:08.112Z,0
2016-11-28T23:31:22.544Z,0
2016-11-28T23:32:39.265Z,0
2016-11-28T23:33:53.949Z,0
2016-11-28T23:35:08.208Z,0
2016-11-28T23:36:24.457Z,0
2016-11-28T23:37:38.090Z,0
2016-11-28T23:38:51.459Z,0
2016-11-28T23:40:06.144Z,0
2016-11-28T23:41:20.153Z,0
2016-11-28T23:42:35.668Z,0
2016-11-28T23:43:50.923Z,0
2016-11-28T23:45:06.106Z,0
2016-11-28T23:46:19.769Z,0
2016-11-28T23:47:36.244Z,0
2016-11-28T23:48:50.864Z,0
2016-11-28T23:50:03.750Z,0
2016-11-28T23:51:19.483Z,0
2016-11-28T23:52:34.078Z,0
2016-11-28T23:53:50.366Z,0
2016-11-28T23:55:07.314Z,0
2016-11-28T23:56:19.244Z,0
2016-11-28T23:57:34.767Z,0
2016-11-28T23:58:49.753Z,0
